createdAt,value
2022-08-18T00:00:18.391Z,57.25
2022-08-18T00:02:28.110Z,57.55
2022-08-18T00:04:36.326Z,57.46
2022-08-18T00:06:38.127Z,57.76
2022-08-18T00:08:39.426Z,57.65
2022-08-18T00:10:40.726Z,57.97
2022-08-18T00:12:43.280Z,57.90
2022-08-18T00:14:44.639Z,58.67
2022-08-18T00:16:45.995Z,58.97
2022-08-18T00:18:47.319Z,58.67
2022-08-18T00:20:48.736Z,58.29
2022-08-18T00:22:50.339Z,58.21
2022-08-18T00:24:51.862Z,57.99
2022-08-18T00:26:54.717Z,57.94
2022-08-18T00:28:56.686Z,58.07
2022-08-18T00:30:58.000Z,58.23
2022-08-18T00:32:59.298Z,57.91
2022-08-18T00:35:00.610Z,58.00
2022-08-18T00:37:01.928Z,57.90
2022-08-18T00:39:03.596Z,57.84
2022-08-18T00:41:04.904Z,57.97
2022-08-18T00:43:06.218Z,57.97
2022-08-18T00:45:07.535Z,57.84
2022-08-18T00:47:08.935Z,57.89
2022-08-18T00:49:10.246Z,57.71
2022-08-18T00:51:11.582Z,57.83
2022-08-18T00:53:12.902Z,57.89
2022-08-18T00:55:14.218Z,57.82
2022-08-18T00:57:15.523Z,57.93
2022-08-18T00:59:16.859Z,58.00
2022-08-18T01:01:18.229Z,58.18
2022-08-18T01:03:22.230Z,58.04
2022-08-18T01:05:26.433Z,58.17
2022-08-18T01:07:29.734Z,57.91
2022-08-18T01:09:31.119Z,57.73
2022-08-18T01:11:32.467Z,57.61
2022-08-18T01:13:33.787Z,57.69
2022-08-18T01:15:35.117Z,57.60
2022-08-18T01:17:54.988Z,57.55
2022-08-18T01:20:14.983Z,57.72
2022-08-18T01:22:16.311Z,57.63
2022-08-18T01:24:21.723Z,57.84
2022-08-18T01:26:23.335Z,57.97
2022-08-18T01:28:24.656Z,57.79
2022-08-18T01:30:26.104Z,57.69
2022-08-18T01:32:27.657Z,57.66
2022-08-18T01:34:28.963Z,57.64
2022-08-18T01:36:30.367Z,57.87
2022-08-18T01:38:32.182Z,57.64
2022-08-18T01:41:23.094Z,58.14
2022-08-18T01:42:56.919Z,57.94
2022-08-18T01:44:58.252Z,57.65
2022-08-18T01:46:59.546Z,57.63
2022-08-18T01:49:01.250Z,58.04
2022-08-18T01:51:02.622Z,57.92
2022-08-18T01:53:05.590Z,57.82
2022-08-18T01:55:07.998Z,57.78
2022-08-18T01:57:14.681Z,57.95
2022-08-18T01:59:15.991Z,57.90
2022-08-18T02:01:17.446Z,57.96
2022-08-18T02:03:18.791Z,57.78
2022-08-18T02:05:21.100Z,58.10
2022-08-18T02:07:22.466Z,58.17
2022-08-18T02:09:34.361Z,58.35
2022-08-18T02:11:35.857Z,58.04
2022-08-18T02:13:37.215Z,58.18
2022-08-18T02:15:38.554Z,58.41
2022-08-18T02:17:43.378Z,58.36
2022-08-18T02:19:44.716Z,58.30
2022-08-18T02:21:46.019Z,58.62
2022-08-18T02:23:53.406Z,58.54
2022-08-18T02:25:55.300Z,58.62
2022-08-18T02:27:56.609Z,59.05
2022-08-18T02:29:57.924Z,58.82
2022-08-18T02:31:59.236Z,58.71
2022-08-18T02:34:00.558Z,59.04
2022-08-18T02:36:02.407Z,58.60
2022-08-18T02:38:03.916Z,58.84
2022-08-18T02:40:05.339Z,59.05
2022-08-18T02:42:07.247Z,60.26
2022-08-18T02:44:08.555Z,60.27
2022-08-18T02:46:09.864Z,59.49
2022-08-18T02:48:11.192Z,58.99
2022-08-18T02:50:12.503Z,58.91
2022-08-18T02:52:13.845Z,58.73
2022-08-18T02:54:15.167Z,58.77
2022-08-18T02:56:39.865Z,58.90
2022-08-18T02:58:43.048Z,58.86
2022-08-18T03:00:44.400Z,59.01
2022-08-18T03:02:45.703Z,58.97
2022-08-18T03:04:47.305Z,58.78
2022-08-18T03:06:48.921Z,58.82
2022-08-18T03:08:52.170Z,59.00
2022-08-18T03:10:53.806Z,58.78
2022-08-18T03:12:55.114Z,58.54
2022-08-18T03:14:57.457Z,58.93
2022-08-18T03:16:58.820Z,58.61
2022-08-18T03:19:00.123Z,58.71
2022-08-18T03:21:02.049Z,59.04
2022-08-18T03:23:09.779Z,58.77
2022-08-18T03:25:11.507Z,58.63
2022-08-18T03:27:12.975Z,58.92
2022-08-18T03:29:14.375Z,58.75
2022-08-18T03:31:15.670Z,58.63
2022-08-18T03:33:16.982Z,58.53
2022-08-18T03:35:18.588Z,58.86
2022-08-18T03:37:19.942Z,58.98
2022-08-18T03:39:27.514Z,58.57
2022-08-18T03:41:44.016Z,58.60
2022-08-18T03:43:51.867Z,58.66
2022-08-18T03:45:54.606Z,58.89
2022-08-18T03:47:56.299Z,58.70
2022-08-18T03:49:57.599Z,58.64
2022-08-18T03:52:00.867Z,58.47
2022-08-18T03:54:02.487Z,58.93
2022-08-18T03:56:03.799Z,58.59
2022-08-18T03:58:05.136Z,58.57
2022-08-18T04:00:06.492Z,58.54
2022-08-18T04:02:07.823Z,58.54
2022-08-18T04:04:09.176Z,58.73
2022-08-18T04:06:12.629Z,58.83
2022-08-18T04:08:14.035Z,58.74
2022-08-18T04:10:19.619Z,58.63
2022-08-18T04:12:21.207Z,58.69
2022-08-18T04:14:24.052Z,58.82
2022-08-18T04:16:25.467Z,58.68
2022-08-18T04:18:27.995Z,58.74
2022-08-18T04:20:29.457Z,59.10
2022-08-18T04:22:33.759Z,59.05
2022-08-18T04:24:35.068Z,58.77
2022-08-18T04:26:37.303Z,58.80
2022-08-18T04:28:38.689Z,59.06
2022-08-18T04:30:39.982Z,59.01
2022-08-18T04:32:41.291Z,59.04
2022-08-18T04:34:42.599Z,59.59
2022-08-18T04:36:44.024Z,59.35
2022-08-18T04:38:45.347Z,59.34
2022-08-18T04:40:47.404Z,59.27
2022-08-18T04:42:48.717Z,59.88
2022-08-18T04:44:51.398Z,59.45
2022-08-18T04:46:52.747Z,59.44
2022-08-18T04:48:58.837Z,59.62
2022-08-18T04:51:00.167Z,59.33
2022-08-18T04:53:20.378Z,59.39
2022-08-18T04:55:22.178Z,59.60
2022-08-18T04:57:24.061Z,59.63
2022-08-18T04:59:25.450Z,59.57
2022-08-18T05:01:26.932Z,59.35
2022-08-18T05:03:28.314Z,59.33
2022-08-18T05:05:29.616Z,59.75
2022-08-18T05:07:30.929Z,59.62
2022-08-18T05:09:32.251Z,59.86
2022-08-18T05:11:44.447Z,59.55
2022-08-18T05:13:45.770Z,59.90
2022-08-18T05:16:09.084Z,59.96
2022-08-18T05:18:08.411Z,59.93
2022-08-18T05:20:15.288Z,60.04
2022-08-18T05:22:28.810Z,60.41
2022-08-18T05:24:37.717Z,60.55
2022-08-18T05:26:41.507Z,60.38
2022-08-18T05:28:42.896Z,60.44
2022-08-18T05:30:44.198Z,60.54
2022-08-18T05:32:49.173Z,60.37
2022-08-18T05:34:51.787Z,60.50
2022-08-18T05:36:53.247Z,60.41
2022-08-18T05:38:54.591Z,61.30
2022-08-18T05:40:56.203Z,61.20
2022-08-18T05:42:57.559Z,60.57
2022-08-18T05:44:58.883Z,60.75
2022-08-18T05:47:00.187Z,61.04
2022-08-18T05:49:01.503Z,60.88
2022-08-18T05:51:03.236Z,61.22
2022-08-18T05:53:05.564Z,61.18
2022-08-18T05:55:34.431Z,61.04
2022-08-18T05:57:37.094Z,60.83
2022-08-18T05:59:38.492Z,61.27
2022-08-18T06:01:41.439Z,61.11
2022-08-18T06:03:45.313Z,61.12
2022-08-18T06:05:48.224Z,61.13
2022-08-18T06:07:49.544Z,61.12
2022-08-18T06:09:50.902Z,61.42
2022-08-18T06:11:52.233Z,61.38
2022-08-18T06:13:59.078Z,61.39
2022-08-18T06:16:01.379Z,61.24
2022-08-18T06:18:02.720Z,61.55
2022-08-18T06:20:04.203Z,61.27
2022-08-18T06:22:05.512Z,61.27
2022-08-18T06:24:07.023Z,60.98
2022-08-18T06:26:08.343Z,61.18
2022-08-18T06:28:10.793Z,61.16
2022-08-18T06:30:12.205Z,60.67
2022-08-18T06:32:14.127Z,61.23
2022-08-18T06:34:15.479Z,61.42
2022-08-18T06:36:18.189Z,61.39
2022-08-18T06:38:39.128Z,61.74
2022-08-18T06:40:40.433Z,61.42
2022-08-18T06:42:41.735Z,61.86
2022-08-18T06:44:43.052Z,61.73
2022-08-18T06:46:44.364Z,61.99
2022-08-18T06:48:48.101Z,62.22
2022-08-18T06:50:49.416Z,62.12
2022-08-18T06:52:50.756Z,61.98
2022-08-18T06:54:52.143Z,61.95
2022-08-18T06:56:53.535Z,62.16
2022-08-18T06:58:55.325Z,62.38
2022-08-18T07:00:56.716Z,62.38
2022-08-18T07:02:58.367Z,62.24
2022-08-18T07:04:59.795Z,61.80
2022-08-18T07:07:01.110Z,61.73
2022-08-18T07:09:02.580Z,61.65
2022-08-18T07:11:03.968Z,61.48
2022-08-18T07:13:05.274Z,61.13
2022-08-18T07:15:07.570Z,61.04
2022-08-18T07:17:08.936Z,60.67
2022-08-18T07:19:10.344Z,60.45
2022-08-18T07:21:11.648Z,60.70
2022-08-18T07:23:12.957Z,60.56
2022-08-18T07:25:14.608Z,60.83
2022-08-18T07:27:17.523Z,60.60
2022-08-18T07:29:18.918Z,60.87
2022-08-18T07:31:20.308Z,60.96
2022-08-18T07:33:21.687Z,60.64
2022-08-18T07:35:24.211Z,60.78
2022-08-18T07:37:28.998Z,60.49
2022-08-18T07:39:30.575Z,60.42
2022-08-18T07:41:32.023Z,60.03
2022-08-18T07:43:33.323Z,60.15
2022-08-18T07:45:36.160Z,60.15
2022-08-18T07:47:37.670Z,59.98
2022-08-18T07:49:43.046Z,59.62
2022-08-18T07:51:55.961Z,59.41
2022-08-18T07:53:57.936Z,59.29
2022-08-18T07:55:59.245Z,59.05
2022-08-18T07:58:00.580Z,59.07
2022-08-18T08:00:01.899Z,58.91
2022-08-18T08:02:03.310Z,58.81
2022-08-18T08:04:04.790Z,58.79
2022-08-18T08:06:06.140Z,58.65
2022-08-18T08:08:08.025Z,58.54
2022-08-18T08:10:09.363Z,58.37
2022-08-18T08:12:11.157Z,58.18
2022-08-18T08:14:12.480Z,58.06
2022-08-18T08:16:13.830Z,57.75
2022-08-18T08:18:15.212Z,57.76
2022-08-18T08:20:16.559Z,57.81
2022-08-18T08:22:18.061Z,57.85
2022-08-18T08:24:19.487Z,57.81
2022-08-18T08:26:22.242Z,57.89
2022-08-18T08:28:23.704Z,58.11
2022-08-18T08:30:25.008Z,58.63
2022-08-18T08:32:28.436Z,58.58
2022-08-18T08:34:29.787Z,63.21
2022-08-18T08:36:31.094Z,61.38
2022-08-18T08:38:43.044Z,60.35
2022-08-18T08:40:46.092Z,58.68
2022-08-18T08:42:47.979Z,59.30
2022-08-18T08:44:59.040Z,56.96
2022-08-18T08:47:00.717Z,58.53
2022-08-18T08:49:02.043Z,58.54
2022-08-18T08:51:03.540Z,59.02
2022-08-18T08:53:04.879Z,58.78
2022-08-18T08:55:06.512Z,59.05
2022-08-18T08:57:08.967Z,58.69
2022-08-18T08:59:11.292Z,58.53
2022-08-18T09:01:12.954Z,58.33
2022-08-18T09:03:14.348Z,57.94
2022-08-18T09:05:15.695Z,57.30
2022-08-18T09:07:17.051Z,56.91
2022-08-18T09:09:18.407Z,56.17
2022-08-18T09:11:19.723Z,55.86
2022-08-18T09:13:23.325Z,55.25
2022-08-18T09:15:28.324Z,55.61
2022-08-18T09:17:33.969Z,56.03
2022-08-18T09:19:35.717Z,55.31
2022-08-18T09:21:37.064Z,55.29
2022-08-18T09:23:38.456Z,55.62
2022-08-18T09:25:40.016Z,55.53
2022-08-18T09:28:07.107Z,55.13
2022-08-18T09:30:03.375Z,54.88
2022-08-18T09:32:04.697Z,54.47
2022-08-18T09:36:27.809Z,54.59
2022-08-18T09:38:48.500Z,55.28
2022-08-18T09:41:08.426Z,56.60
2022-08-18T09:43:09.775Z,55.71
2022-08-18T09:45:13.484Z,55.15
2022-08-18T09:47:16.064Z,54.96
2022-08-18T09:49:17.722Z,54.82
2022-08-18T09:51:20.803Z,55.03
2022-08-18T09:53:24.642Z,54.90
2022-08-18T09:55:26.035Z,54.59
2022-08-18T09:57:27.994Z,55.00
2022-08-18T09:59:30.025Z,54.92
2022-08-18T10:01:34.550Z,54.93
2022-08-18T10:03:37.563Z,54.75
2022-08-18T10:05:38.991Z,55.62
2022-08-18T10:07:43.489Z,56.11
2022-08-18T10:09:45.388Z,55.30
2022-08-18T10:11:46.907Z,55.89
2022-08-18T10:13:53.427Z,56.22
2022-08-18T10:15:54.792Z,57.17
2022-08-18T10:17:56.107Z,57.31
2022-08-18T10:19:58.613Z,56.51
2022-08-18T10:22:02.325Z,54.51
2022-08-18T10:26:24.915Z,55.84
2022-08-18T10:28:26.637Z,56.09
2022-08-18T10:30:34.407Z,56.20
2022-08-18T10:32:37.706Z,56.11
2022-08-18T10:34:39.048Z,56.09
2022-08-18T10:36:40.721Z,56.46
2022-08-18T10:38:46.072Z,56.59
2022-08-18T10:40:50.559Z,56.04
2022-08-18T10:45:13.322Z,56.38
2022-08-18T10:47:24.979Z,57.27
2022-08-18T10:49:26.486Z,57.30
2022-08-18T10:51:27.963Z,57.81
2022-08-18T10:53:39.871Z,58.06
2022-08-18T10:55:48.652Z,58.08
2022-08-18T10:57:50.857Z,58.39
2022-08-18T10:59:54.734Z,58.58
2022-08-18T11:01:56.373Z,58.54
2022-08-18T11:03:59.000Z,58.69
2022-08-18T11:06:00.748Z,59.01
2022-08-18T11:08:02.121Z,58.94
2022-08-18T11:10:22.258Z,59.23
2022-08-18T11:12:25.007Z,58.84
2022-08-18T11:14:29.680Z,59.32
2022-08-18T11:16:35.392Z,59.44
2022-08-18T11:18:43.382Z,59.49
2022-08-18T11:20:47.306Z,59.20
2022-08-18T11:22:49.022Z,59.17
2022-08-18T11:24:52.811Z,59.46
2022-08-18T11:26:54.758Z,59.72
2022-08-18T11:28:56.065Z,59.79
2022-08-18T11:30:58.190Z,59.75
2022-08-18T11:33:01.146Z,60.19
2022-08-18T11:35:04.144Z,59.83
2022-08-18T11:37:09.134Z,60.06
2022-08-18T11:39:10.703Z,60.09
2022-08-18T11:41:13.576Z,60.04
2022-08-18T11:43:15.339Z,60.15
2022-08-18T11:45:17.579Z,60.30
2022-08-18T11:47:27.661Z,60.28
2022-08-18T11:49:30.087Z,60.34
2022-08-18T11:51:34.736Z,60.10
2022-08-18T11:53:36.044Z,60.25
2022-08-18T11:55:39.825Z,60.16
2022-08-18T11:57:50.022Z,60.53
2022-08-18T11:59:55.077Z,60.13
2022-08-18T12:02:02.304Z,60.39
2022-08-18T12:04:03.621Z,60.37
2022-08-18T12:06:05.044Z,60.24
2022-08-18T12:08:15.437Z,60.27
2022-08-18T12:10:30.656Z,60.28
2022-08-18T12:12:31.968Z,60.44
2022-08-18T12:14:35.237Z,60.46
2022-08-18T12:16:38.023Z,60.17
2022-08-18T12:18:39.324Z,60.36
2022-08-18T12:20:43.267Z,60.41
2022-08-18T12:22:46.039Z,60.43
2022-08-18T12:24:48.320Z,60.32
2022-08-18T12:26:49.887Z,60.42
2022-08-18T12:28:55.159Z,60.52
2022-08-18T12:31:03.414Z,60.42
2022-08-18T12:33:16.595Z,60.44
2022-08-18T12:35:26.453Z,60.36
2022-08-18T12:37:57.634Z,60.55
2022-08-18T12:39:49.199Z,60.38
2022-08-18T12:41:50.792Z,60.40
2022-08-18T12:46:15.165Z,60.55
2022-08-18T12:48:16.530Z,60.56
2022-08-18T12:50:17.909Z,60.42
2022-08-18T12:52:20.383Z,60.36
2022-08-18T12:54:22.098Z,60.38
2022-08-18T12:56:26.466Z,60.56
2022-08-18T12:58:29.032Z,60.55
2022-08-18T13:00:30.380Z,60.47
2022-08-18T13:02:31.803Z,60.56
2022-08-18T13:04:33.384Z,60.48
2022-08-18T13:06:34.691Z,60.35
2022-08-18T13:08:47.765Z,60.29
2022-08-18T13:10:51.452Z,60.22
2022-08-18T13:12:59.793Z,60.49
2022-08-18T13:15:01.142Z,60.18
2022-08-18T13:17:03.212Z,60.21
2022-08-18T13:19:06.092Z,60.30
2022-08-18T13:21:07.671Z,60.31
2022-08-18T13:23:11.136Z,60.08
2022-08-18T13:25:12.471Z,60.28
2022-08-18T13:27:13.819Z,60.38
2022-08-18T13:29:24.687Z,60.16
2022-08-18T13:31:26.800Z,60.17
2022-08-18T13:33:35.315Z,60.34
2022-08-18T13:35:54.093Z,60.24
2022-08-18T13:37:56.809Z,60.22
2022-08-18T13:39:58.361Z,60.27
2022-08-18T13:42:00.532Z,60.09
2022-08-18T13:44:02.210Z,60.27
2022-08-18T13:46:04.822Z,60.19
2022-08-18T13:48:06.753Z,60.28
2022-08-18T13:50:10.046Z,60.14
2022-08-18T13:52:33.035Z,60.46
2022-08-18T13:54:35.424Z,60.05
2022-08-18T13:56:36.979Z,60.41
2022-08-18T13:58:41.167Z,60.19
2022-08-18T14:00:54.867Z,60.25
2022-08-18T14:02:57.254Z,60.39
2022-08-18T14:04:58.776Z,60.47
2022-08-18T14:07:03.214Z,60.34
2022-08-18T14:09:19.919Z,60.32
2022-08-18T14:11:32.879Z,60.64
2022-08-18T14:13:43.548Z,60.43
2022-08-18T14:15:47.208Z,60.48
2022-08-18T14:17:52.962Z,60.45
2022-08-18T14:20:15.359Z,60.45
2022-08-18T14:22:42.062Z,60.49
2022-08-18T14:25:02.292Z,60.55
2022-08-18T14:27:06.158Z,60.57
2022-08-18T14:29:11.269Z,60.51
2022-08-18T14:31:20.518Z,60.67
2022-08-18T14:33:21.972Z,60.56
2022-08-18T14:36:04.112Z,60.63
2022-08-18T14:37:57.251Z,60.60
2022-08-18T14:39:58.618Z,60.52
2022-08-18T14:41:59.954Z,60.76
2022-08-18T14:44:12.902Z,60.74
2022-08-18T14:46:15.607Z,60.62
2022-08-18T14:48:17.974Z,60.63
2022-08-18T14:50:19.802Z,60.64
2022-08-18T14:52:23.510Z,60.60
2022-08-18T14:54:28.651Z,60.63
2022-08-18T14:56:36.482Z,60.58
2022-08-18T14:58:40.905Z,60.81
2022-08-18T15:00:53.712Z,60.64
2022-08-18T15:02:57.374Z,60.84
2022-08-18T15:05:00.963Z,60.66
2022-08-18T15:07:02.558Z,60.86
2022-08-18T15:09:03.922Z,60.73
2022-08-18T15:11:11.317Z,60.80
2022-08-18T15:13:13.187Z,60.71
2022-08-18T15:15:17.750Z,60.90
2022-08-18T15:17:19.191Z,60.62
2022-08-18T15:19:37.868Z,60.79
2022-08-18T15:22:02.962Z,60.68
2022-08-18T15:24:23.029Z,60.81
2022-08-18T15:26:24.363Z,60.68
2022-08-18T15:28:27.883Z,60.76
2022-08-18T15:30:29.291Z,60.67
2022-08-18T15:32:30.658Z,60.76
2022-08-18T15:34:31.984Z,60.84
2022-08-18T15:36:35.850Z,60.79
2022-08-18T15:38:37.217Z,60.76
2022-08-18T15:40:41.647Z,60.72
2022-08-18T15:42:46.415Z,60.69
2022-08-18T15:44:48.361Z,60.72
2022-08-18T15:46:53.984Z,60.64
2022-08-18T15:48:55.748Z,60.71
2022-08-18T15:50:57.139Z,60.68
2022-08-18T15:53:09.392Z,60.74
2022-08-18T15:55:10.731Z,60.82
2022-08-18T15:57:38.918Z,61.09
2022-08-18T15:59:40.202Z,60.72
2022-08-18T16:01:43.434Z,60.75
2022-08-18T16:03:48.919Z,60.86
2022-08-18T16:05:51.639Z,60.84
2022-08-18T16:07:55.781Z,60.67
2022-08-18T16:09:57.530Z,60.86
2022-08-18T16:12:00.494Z,60.87
2022-08-18T16:14:02.054Z,60.90
2022-08-18T16:16:03.357Z,60.72
2022-08-18T16:18:04.672Z,60.78
2022-08-18T16:20:05.981Z,60.59
2022-08-18T16:22:07.495Z,60.84
2022-08-18T16:24:08.928Z,60.90
2022-08-18T16:26:10.259Z,60.90
2022-08-18T16:28:14.582Z,60.68
2022-08-18T16:30:15.943Z,60.80
2022-08-18T16:32:17.299Z,60.89
2022-08-18T16:34:18.643Z,60.81
2022-08-18T16:36:19.986Z,60.83
2022-08-18T16:38:21.627Z,60.92
2022-08-18T16:40:23.463Z,60.97
2022-08-18T16:42:32.636Z,60.73
2022-08-18T16:44:34.080Z,60.75
2022-08-18T16:46:35.456Z,60.96
2022-08-18T16:48:36.836Z,60.73
2022-08-18T16:50:38.405Z,60.88
2022-08-18T16:52:39.791Z,61.03
2022-08-18T16:54:41.269Z,60.83
2022-08-18T16:56:42.594Z,60.88
2022-08-18T16:59:02.491Z,60.90
2022-08-18T17:01:25.341Z,60.83
2022-08-18T17:03:52.551Z,60.85
2022-08-18T17:05:53.883Z,60.97
2022-08-18T17:07:55.173Z,61.02
2022-08-18T17:09:57.438Z,60.97
2022-08-18T17:11:58.763Z,61.07
2022-08-18T17:14:00.129Z,61.03
2022-08-18T17:16:01.490Z,60.88
2022-08-18T17:18:03.034Z,61.08
2022-08-18T17:20:07.015Z,60.94
2022-08-18T17:22:12.877Z,61.01
2022-08-18T17:24:14.698Z,61.16
2022-08-18T17:26:19.843Z,61.01
2022-08-18T17:28:26.170Z,61.01
2022-08-18T17:30:27.661Z,61.03
2022-08-18T17:32:29.027Z,60.74
2022-08-18T17:34:30.387Z,61.07
2022-08-18T17:36:31.724Z,61.04
2022-08-18T17:38:34.151Z,60.94
2022-08-18T17:40:35.494Z,60.99
2022-08-18T17:42:40.144Z,60.96
2022-08-18T17:44:46.221Z,60.96
2022-08-18T17:46:53.514Z,61.12
2022-08-18T17:48:54.875Z,61.22
2022-08-18T17:51:14.780Z,60.94
2022-08-18T17:53:16.086Z,61.20
2022-08-18T17:55:20.082Z,61.10
2022-08-18T17:57:23.431Z,61.17
2022-08-18T17:59:46.409Z,61.05
2022-08-18T18:01:46.256Z,61.11
2022-08-18T18:03:47.648Z,60.99
2022-08-18T18:05:48.949Z,61.15
2022-08-18T18:07:54.718Z,61.08
2022-08-18T18:09:56.166Z,61.14
2022-08-18T18:11:57.461Z,61.19
2022-08-18T18:13:58.770Z,61.05
2022-08-18T18:16:03.105Z,61.11
2022-08-18T18:18:04.410Z,61.13
2022-08-18T18:20:05.869Z,61.23
2022-08-18T18:22:07.176Z,61.28
2022-08-18T18:24:08.503Z,61.08
2022-08-18T18:26:09.795Z,61.22
2022-08-18T18:28:11.194Z,60.99
2022-08-18T18:30:12.539Z,61.18
2022-08-18T18:32:13.863Z,61.08
2022-08-18T18:34:23.563Z,61.09
2022-08-18T18:36:29.140Z,61.09
2022-08-18T18:38:30.466Z,61.24
2022-08-18T18:40:31.824Z,61.11
2022-08-18T18:42:33.242Z,61.21
2022-08-18T18:44:34.577Z,61.25
2022-08-18T18:46:35.915Z,61.17
2022-08-18T18:48:45.059Z,61.05
2022-08-18T18:50:56.129Z,61.24
2022-08-18T18:52:57.960Z,61.28
2022-08-18T18:54:59.698Z,61.13
2022-08-18T18:57:01.026Z,61.14
2022-08-18T18:59:02.346Z,61.16
2022-08-18T19:01:03.863Z,61.17
2022-08-18T19:03:05.263Z,61.16
2022-08-18T19:05:07.675Z,61.14
2022-08-18T19:07:09.062Z,61.31
2022-08-18T19:09:10.374Z,61.27
2022-08-18T19:11:11.686Z,61.20
2022-08-18T19:13:26.868Z,61.20
2022-08-18T19:15:38.217Z,61.23
2022-08-18T19:17:39.824Z,61.15
2022-08-18T19:19:41.140Z,61.09
2022-08-18T19:22:03.153Z,61.27
2022-08-18T19:24:03.933Z,61.21
2022-08-18T19:26:08.377Z,61.27
2022-08-18T19:28:09.974Z,61.14
2022-08-18T19:30:11.326Z,61.16
2022-08-18T19:32:16.404Z,61.25
2022-08-18T19:34:18.274Z,61.23
2022-08-18T19:36:20.966Z,61.29
2022-08-18T19:38:22.887Z,61.30
2022-08-18T19:40:24.233Z,61.30
2022-08-18T19:42:25.575Z,61.12
2022-08-18T19:44:29.080Z,61.12
2022-08-18T19:46:34.738Z,61.32
2022-08-18T19:48:36.126Z,61.21
2022-08-18T19:50:38.867Z,61.35
2022-08-18T19:52:46.870Z,61.42
2022-08-18T19:54:57.155Z,61.22
2022-08-18T19:56:58.481Z,61.33
2022-08-18T19:59:18.244Z,61.41
2022-08-18T20:01:21.425Z,61.17
2022-08-18T20:03:22.806Z,61.37
2022-08-18T20:05:25.497Z,61.23
2022-08-18T20:07:26.803Z,61.12
2022-08-18T20:09:28.123Z,61.16
2022-08-18T20:11:42.048Z,61.38
2022-08-18T20:13:44.095Z,61.27
2022-08-18T20:15:45.560Z,61.36
2022-08-18T20:17:46.871Z,61.31
2022-08-18T20:19:48.223Z,61.27
2022-08-18T20:21:49.539Z,61.35
2022-08-18T20:23:50.842Z,61.19
2022-08-18T20:25:52.146Z,61.30
2022-08-18T20:27:53.450Z,61.39
2022-08-18T20:29:54.807Z,61.16
2022-08-18T20:31:58.494Z,61.16
2022-08-18T20:34:00.670Z,61.32
2022-08-18T20:36:03.279Z,61.20
2022-08-18T20:38:04.783Z,61.24
2022-08-18T20:40:07.635Z,61.30
2022-08-18T20:42:09.971Z,61.32
2022-08-18T20:44:21.872Z,61.26
2022-08-18T20:46:36.232Z,61.28
2022-08-18T20:48:38.904Z,61.31
2022-08-18T20:50:40.198Z,61.37
2022-08-18T20:52:43.260Z,61.33
2022-08-18T20:54:57.630Z,61.33
2022-08-18T20:56:59.742Z,61.37
2022-08-18T20:59:04.008Z,61.27
2022-08-18T21:01:10.469Z,61.31
2022-08-18T21:03:11.835Z,61.20
2022-08-18T21:05:16.785Z,61.30
2022-08-18T21:07:36.224Z,61.55
2022-08-18T21:09:38.992Z,61.22
2022-08-18T21:11:40.298Z,61.38
2022-08-18T21:13:41.605Z,61.52
2022-08-18T21:15:42.922Z,61.42
2022-08-18T21:17:44.582Z,61.28
2022-08-18T21:19:46.054Z,63.52
2022-08-18T21:21:47.368Z,60.28
2022-08-18T21:23:48.773Z,59.78
2022-08-18T21:25:50.315Z,59.01
2022-08-18T21:27:51.617Z,59.00
2022-08-18T21:29:52.959Z,59.14
2022-08-18T21:31:54.371Z,58.80
2022-08-18T21:33:55.836Z,58.73
2022-08-18T21:35:57.178Z,58.59
2022-08-18T21:37:58.536Z,58.75
2022-08-18T21:39:59.982Z,59.00
2022-08-18T21:42:01.536Z,58.50
2022-08-18T21:44:02.834Z,58.60
2022-08-18T21:46:04.598Z,58.79
2022-08-18T21:48:10.887Z,58.40
2022-08-18T21:50:12.320Z,58.44
2022-08-18T21:52:13.799Z,58.09
2022-08-18T21:54:17.763Z,57.96
2022-08-18T21:56:19.118Z,58.10
2022-08-18T21:58:20.487Z,58.48
2022-08-18T22:00:34.514Z,59.10
2022-08-18T22:02:35.847Z,59.77
2022-08-18T22:04:37.462Z,59.22
2022-08-18T22:06:40.282Z,59.32
2022-08-18T22:08:41.587Z,59.67
2022-08-18T22:11:06.590Z,59.54
2022-08-18T22:13:26.418Z,59.37
2022-08-18T22:15:27.720Z,59.39
2022-08-18T22:17:29.034Z,58.89
2022-08-18T22:19:30.355Z,59.07
2022-08-18T22:21:32.087Z,59.35
2022-08-18T22:23:52.839Z,59.55
2022-08-18T22:25:54.185Z,59.55
2022-08-18T22:27:57.005Z,59.72
2022-08-18T22:30:04.624Z,59.90
2022-08-18T22:32:05.922Z,60.11
2022-08-18T22:34:07.504Z,60.12
2022-08-18T22:36:08.824Z,60.38
2022-08-18T22:38:10.136Z,59.85
2022-08-18T22:40:11.515Z,59.94
2022-08-18T22:42:13.726Z,60.09
2022-08-18T22:44:15.027Z,60.28
2022-08-18T22:46:20.301Z,60.28
2022-08-18T22:48:25.627Z,60.32
2022-08-18T22:50:26.935Z,60.49
2022-08-18T22:52:30.238Z,61.96
2022-08-18T22:54:31.685Z,62.07
2022-08-18T22:56:34.403Z,61.46
2022-08-18T22:58:36.866Z,60.99
2022-08-18T23:00:40.805Z,60.62
2022-08-18T23:02:44.382Z,61.19
2022-08-18T23:04:45.736Z,60.91
2022-08-18T23:06:51.592Z,60.86
2022-08-18T23:08:54.683Z,60.46
2022-08-18T23:10:57.246Z,60.86
2022-08-18T23:13:03.621Z,60.69
2022-08-18T23:15:14.439Z,60.74
2022-08-18T23:17:15.810Z,60.53
2022-08-18T23:19:17.223Z,60.47
2022-08-18T23:21:35.143Z,60.34
2022-08-18T23:23:37.008Z,60.01
2022-08-18T23:25:39.514Z,60.02
2022-08-18T23:27:42.919Z,60.58
2022-08-18T23:29:44.514Z,62.36
2022-08-18T23:31:45.851Z,62.15
2022-08-18T23:33:47.527Z,62.34
2022-08-18T23:35:49.074Z,62.30
2022-08-18T23:37:50.384Z,62.30
2022-08-18T23:39:51.764Z,62.30
2022-08-18T23:41:53.738Z,62.69
2022-08-18T23:43:56.694Z,62.78
2022-08-18T23:45:58.055Z,62.68
2022-08-18T23:47:59.406Z,62.89
2022-08-18T23:50:01.625Z,63.11
2022-08-18T23:52:02.935Z,63.14
2022-08-18T23:54:04.275Z,63.17
2022-08-18T23:56:06.158Z,63.15
2022-08-18T23:58:09.643Z,63.49
